createdAt,value
2018-11-28T00:02:18.366Z,38.00
2018-11-28T00:04:46.638Z,36.90
2018-11-28T00:07:14.935Z,40.80
2018-11-28T00:09:43.199Z,36.47
2018-11-28T00:12:11.464Z,39.43
2018-11-28T00:14:39.775Z,39.03
2018-11-28T00:17:08.089Z,36.40
2018-11-28T00:19:36.523Z,33.33
2018-11-28T00:22:04.815Z,41.63
2018-11-28T00:24:33.078Z,38.77
2018-11-28T00:27:01.336Z,38.73
2018-11-28T00:29:29.643Z,42.83
2018-11-28T00:31:57.924Z,41.17
2018-11-28T00:34:26.212Z,44.43
2018-11-28T00:36:54.541Z,33.40
2018-11-28T00:39:22.871Z,37.90
2018-11-28T00:41:51.159Z,40.50
2018-11-28T00:44:19.472Z,37.83
2018-11-28T00:46:47.753Z,38.23
2018-11-28T00:49:15.997Z,38.03
2018-11-28T00:51:44.376Z,41.37
2018-11-28T00:54:12.688Z,41.33
2018-11-28T00:56:40.963Z,40.67
2018-11-28T00:59:09.332Z,40.00
2018-11-28T01:01:37.997Z,40.83
2018-11-28T01:04:06.271Z,40.37
2018-11-28T01:06:34.583Z,39.37
2018-11-28T01:09:03.343Z,37.10
2018-11-28T01:11:31.619Z,40.43
2018-11-28T01:13:59.911Z,39.70
2018-11-28T01:19:21.404Z,33.60
2018-11-28T01:21:49.695Z,34.73
2018-11-28T01:24:17.979Z,40.23
2018-11-28T01:26:46.321Z,38.13
2018-11-28T01:29:14.586Z,36.40
2018-11-28T01:31:42.876Z,39.13
2018-11-28T01:34:11.156Z,40.40
2018-11-28T01:36:39.447Z,38.70
2018-11-28T01:39:07.868Z,38.07
2018-11-28T01:41:36.185Z,38.70
2018-11-28T01:44:04.532Z,35.03
2018-11-28T01:46:32.792Z,37.33
2018-11-28T01:49:01.161Z,41.23
2018-11-28T01:51:29.420Z,35.87
2018-11-28T01:53:57.680Z,36.83
2018-11-28T01:56:25.993Z,37.27
2018-11-28T01:58:55.352Z,38.63
2018-11-28T02:01:23.593Z,40.37
2018-11-28T02:03:51.892Z,42.13
2018-11-28T02:06:20.148Z,34.60
2018-11-28T02:08:48.412Z,41.60
2018-11-28T02:11:16.678Z,40.10
2018-11-28T02:13:57.833Z,32.00
2018-11-28T02:16:26.083Z,41.33
2018-11-28T02:18:54.364Z,40.43
2018-11-28T02:21:22.620Z,38.53
2018-11-28T02:23:51.000Z,44.80
2018-11-28T02:26:19.267Z,40.90
2018-11-28T02:28:47.571Z,44.53
2018-11-28T02:31:15.845Z,39.73
2018-11-28T02:33:44.111Z,41.40
2018-11-28T02:36:12.356Z,42.03
2018-11-28T02:38:40.638Z,42.30
2018-11-28T02:41:08.907Z,42.23
2018-11-28T02:43:37.191Z,42.10
2018-11-28T02:46:16.747Z,37.57
2018-11-28T02:48:45.015Z,38.27
2018-11-28T02:51:13.293Z,44.13
2018-11-28T02:53:41.656Z,40.70
2018-11-28T02:56:09.896Z,41.63
2018-11-28T02:58:38.181Z,40.53
2018-11-28T03:01:06.624Z,35.83
2018-11-28T03:03:34.897Z,34.57
2018-11-28T03:06:03.136Z,40.87
2018-11-28T03:08:31.431Z,42.83
2018-11-28T03:10:59.706Z,34.90
2018-11-28T03:13:28.004Z,37.37
2018-11-28T03:15:59.358Z,41.17
2018-11-28T03:18:27.867Z,39.47
2018-11-28T03:20:56.144Z,43.33
2018-11-28T03:23:24.445Z,43.27
2018-11-28T03:25:52.716Z,42.07
2018-11-28T03:28:20.987Z,40.47
2018-11-28T03:30:49.331Z,38.97
2018-11-28T03:33:17.577Z,39.20
2018-11-28T03:35:45.869Z,40.30
2018-11-28T03:38:14.116Z,37.37
2018-11-28T03:40:42.382Z,36.87
2018-11-28T03:43:10.663Z,37.43
2018-11-28T03:45:38.940Z,43.13
2018-11-28T03:48:07.187Z,39.33
2018-11-28T03:50:35.460Z,42.07
2018-11-28T03:53:03.742Z,36.93
2018-11-28T03:55:32.041Z,40.10
2018-11-28T03:58:00.302Z,38.47
2018-11-28T04:00:28.601Z,40.23
2018-11-28T04:02:56.903Z,40.47
2018-11-28T04:05:25.186Z,38.33
2018-11-28T04:07:53.484Z,44.87
2018-11-28T04:10:21.732Z,40.17
2018-11-28T04:12:50.049Z,39.43
2018-11-28T04:15:20.904Z,43.23
2018-11-28T04:17:49.208Z,41.07
2018-11-28T04:20:19.223Z,37.63
2018-11-28T04:22:47.579Z,44.43
2018-11-28T04:25:16.608Z,44.27
2018-11-28T04:27:44.879Z,43.23
2018-11-28T04:30:21.123Z,39.47
2018-11-28T04:32:50.701Z,43.70
2018-11-28T04:35:18.940Z,45.93
2018-11-28T04:37:47.411Z,42.90
2018-11-28T04:40:16.526Z,42.90
2018-11-28T04:42:45.123Z,41.83
2018-11-28T04:45:18.068Z,40.67
2018-11-28T04:47:46.364Z,40.70
2018-11-28T04:50:14.636Z,41.73
2018-11-28T04:52:42.932Z,42.93
2018-11-28T04:55:15.011Z,36.67
2018-11-28T04:57:43.341Z,38.23
2018-11-28T05:00:26.860Z,40.50
2018-11-28T05:02:57.067Z,40.47
2018-11-28T05:05:25.428Z,39.33
2018-11-28T05:07:53.972Z,38.40
2018-11-28T05:10:26.040Z,41.40
2018-11-28T05:12:54.811Z,43.97
2018-11-28T05:15:28.115Z,39.70
2018-11-28T05:17:56.423Z,40.57
2018-11-28T05:20:26.460Z,37.50
2018-11-28T05:22:55.044Z,37.93
2018-11-28T05:25:25.248Z,42.93
2018-11-28T05:27:54.325Z,43.42
2018-11-28T05:30:24.445Z,41.10
2018-11-28T05:32:52.832Z,37.90
2018-11-28T05:35:31.176Z,43.67
2018-11-28T05:37:59.459Z,37.17
2018-11-28T05:40:28.183Z,41.63
2018-11-28T05:42:56.803Z,40.47
2018-11-28T05:45:25.427Z,38.90
2018-11-28T05:47:54.075Z,43.27
2018-11-28T05:50:22.714Z,38.70
2018-11-28T05:52:51.964Z,37.67
2018-11-28T05:55:22.105Z,39.60
2018-11-28T05:57:50.398Z,40.33
2018-11-28T06:00:44.435Z,41.60
2018-11-28T06:03:13.192Z,39.07
2018-11-28T06:05:43.406Z,34.83
2018-11-28T06:08:11.731Z,39.73
2018-11-28T06:10:40.059Z,34.53
2018-11-28T06:13:08.389Z,35.20
2018-11-28T06:15:36.699Z,43.92
2018-11-28T06:18:05.444Z,39.80
2018-11-28T06:20:33.825Z,40.20
2018-11-28T06:23:04.091Z,37.47
2018-11-28T06:25:33.480Z,38.80
2018-11-28T06:28:01.737Z,38.20
2018-11-28T06:30:30.136Z,41.80
2018-11-28T06:32:59.577Z,48.17
2018-11-28T06:35:27.860Z,47.25
2018-11-28T06:37:56.140Z,43.17
2018-11-28T06:40:25.133Z,45.10
2018-11-28T06:42:55.039Z,38.13
2018-11-28T06:45:24.149Z,46.48
2018-11-28T06:47:52.461Z,40.23
2018-11-28T06:50:20.801Z,36.90
2018-11-28T06:52:50.307Z,39.47
2018-11-28T06:55:19.657Z,38.17
2018-11-28T06:57:48.798Z,42.47
2018-11-28T07:00:20.044Z,41.60
2018-11-28T07:02:49.938Z,40.67
2018-11-28T07:05:18.285Z,42.53
2018-11-28T07:07:46.620Z,40.97
2018-11-28T07:10:19.776Z,36.33
2018-11-28T07:12:48.139Z,35.57
2018-11-28T07:15:17.460Z,40.33
2018-11-28T07:17:45.824Z,36.97
2018-11-28T07:20:14.972Z,40.10
2018-11-28T07:22:43.273Z,36.53
2018-11-28T07:25:13.425Z,38.13
2018-11-28T07:27:45.137Z,37.43
2018-11-28T07:30:18.891Z,38.63
2018-11-28T07:32:47.729Z,40.53
2018-11-28T07:35:16.012Z,39.30
2018-11-28T07:37:44.299Z,41.07
2018-11-28T07:40:15.738Z,44.03
2018-11-28T07:42:50.913Z,37.50
2018-11-28T07:45:19.152Z,37.33
2018-11-28T07:47:47.436Z,37.43
2018-11-28T07:50:15.791Z,40.97
2018-11-28T07:52:44.188Z,41.10
2018-11-28T07:55:12.532Z,39.37
2018-11-28T07:57:40.840Z,38.47
2018-11-28T08:00:11.783Z,40.97
2018-11-28T08:02:40.072Z,43.57
2018-11-28T08:05:09.460Z,42.03
2018-11-28T08:07:38.109Z,37.07
2018-11-28T08:10:08.858Z,37.33
2018-11-28T08:12:37.184Z,39.20
2018-11-28T08:15:06.636Z,37.70
2018-11-28T08:17:36.356Z,37.97
2018-11-28T08:20:04.167Z,38.40
2018-11-28T08:22:32.456Z,36.50
2018-11-28T08:25:00.768Z,37.23
2018-11-28T08:27:29.073Z,38.07
2018-11-28T08:29:57.381Z,34.67
2018-11-28T08:32:25.663Z,36.77
2018-11-28T08:34:54.041Z,39.53
2018-11-28T08:37:22.380Z,34.27
2018-11-28T08:39:50.649Z,35.60
2018-11-28T08:42:19.090Z,34.30
2018-11-28T08:44:47.371Z,37.67
2018-11-28T08:47:15.676Z,38.20
2018-11-28T08:49:44.043Z,36.33
2018-11-28T08:52:12.377Z,35.07
2018-11-28T08:54:40.668Z,38.07
2018-11-28T08:57:09.029Z,35.43
2018-11-28T08:59:37.343Z,35.60
2018-11-28T09:02:05.936Z,34.70
2018-11-28T09:04:34.231Z,33.43
2018-11-28T09:07:02.499Z,39.80
2018-11-28T09:09:30.760Z,35.93
2018-11-28T09:11:59.152Z,33.70
2018-11-28T09:14:27.464Z,36.87
2018-11-28T09:16:55.732Z,39.23
2018-11-28T09:19:24.127Z,37.47
2018-11-28T09:21:52.408Z,31.07
2018-11-28T09:24:20.744Z,36.23
2018-11-28T09:26:49.032Z,34.00
2018-11-28T09:29:17.298Z,36.17
2018-11-28T09:31:45.581Z,32.97
2018-11-28T09:34:13.993Z,33.77
2018-11-28T09:36:42.237Z,35.07
2018-11-28T09:39:10.508Z,30.70
2018-11-28T09:41:38.793Z,34.27
2018-11-28T09:44:07.151Z,32.13
2018-11-28T09:46:35.427Z,35.47
2018-11-28T09:49:03.731Z,33.93
2018-11-28T09:51:32.004Z,29.40
2018-11-28T09:54:00.383Z,34.37
2018-11-28T09:56:28.659Z,29.23
2018-11-28T09:58:56.943Z,34.17
2018-11-28T10:01:25.271Z,31.93
2018-11-28T10:03:53.663Z,32.00
2018-11-28T10:06:22.826Z,31.33
2018-11-28T10:08:51.188Z,33.37
2018-11-28T10:11:19.489Z,31.33
2018-11-28T10:13:47.744Z,31.27
2018-11-28T10:16:16.001Z,33.77
2018-11-28T10:18:44.378Z,26.93
2018-11-28T10:21:12.667Z,27.30
2018-11-28T10:23:40.929Z,26.73
2018-11-28T10:26:09.311Z,27.53
2018-11-28T10:28:37.607Z,33.10
2018-11-28T10:31:06.072Z,27.17
2018-11-28T10:33:34.425Z,28.83
2018-11-28T10:36:02.716Z,28.50
2018-11-28T10:38:30.988Z,28.43
2018-11-28T10:40:59.268Z,30.00
2018-11-28T10:43:28.718Z,29.47
2018-11-28T10:45:57.039Z,30.30
2018-11-28T10:48:25.359Z,28.77
2018-11-28T10:50:54.603Z,24.67
2018-11-28T10:53:22.848Z,26.97
2018-11-28T10:55:51.165Z,27.10
2018-11-28T10:58:19.481Z,26.40
2018-11-28T11:00:53.875Z,26.57
2018-11-28T11:03:26.646Z,28.00
2018-11-28T11:06:00.312Z,27.90
2018-11-28T11:08:32.863Z,27.00
2018-11-28T11:11:06.521Z,31.53
2018-11-28T11:13:40.159Z,27.03
2018-11-28T11:16:08.455Z,28.23
2018-11-28T11:18:37.071Z,27.27
2018-11-28T11:21:05.544Z,29.13
2018-11-28T11:23:33.837Z,28.57
2018-11-28T11:26:02.111Z,26.03
2018-11-28T11:28:30.466Z,28.37
2018-11-28T11:30:58.907Z,24.83
2018-11-28T11:33:27.226Z,25.03
2018-11-28T11:35:55.525Z,24.97
2018-11-28T11:38:23.912Z,22.20
2018-11-28T11:40:52.197Z,19.93
2018-11-28T11:43:20.492Z,22.27
2018-11-28T11:45:49.320Z,19.23
2018-11-28T11:48:17.767Z,20.67
2018-11-28T11:50:46.464Z,21.90
2018-11-28T11:53:15.071Z,17.30
2018-11-28T11:55:43.564Z,20.93
2018-11-28T11:58:11.949Z,19.23
2018-11-28T12:00:41.701Z,18.50
2018-11-28T12:03:11.920Z,17.33
2018-11-28T12:05:49.660Z,18.00
2018-11-28T12:08:17.983Z,21.10
2018-11-28T12:10:46.369Z,18.03
2018-11-28T12:13:14.748Z,17.33
2018-11-28T12:18:36.704Z,16.33
2018-11-28T12:21:06.514Z,17.07
2018-11-28T12:23:35.144Z,19.13
2018-11-28T12:26:03.609Z,16.90
2018-11-28T12:28:31.964Z,17.97
2018-11-28T12:31:00.304Z,20.30
2018-11-28T12:33:28.968Z,19.17
2018-11-28T12:35:57.348Z,20.13
2018-11-28T12:38:25.651Z,16.83
2018-11-28T12:40:53.998Z,18.10
2018-11-28T12:43:22.393Z,17.53
2018-11-28T12:45:51.123Z,16.43
2018-11-28T12:48:19.429Z,16.07
2018-11-28T12:50:47.782Z,13.83
2018-11-28T12:53:16.036Z,14.17
2018-11-28T12:55:44.328Z,14.60
2018-11-28T12:58:14.020Z,15.10
2018-11-28T13:00:42.348Z,17.27
2018-11-28T13:03:11.943Z,14.33
2018-11-28T13:05:40.347Z,12.23
2018-11-28T13:08:08.679Z,14.50
2018-11-28T13:10:38.212Z,16.00
2018-11-28T13:13:07.841Z,16.97
2018-11-28T13:15:37.067Z,15.37
2018-11-28T13:18:10.279Z,15.20
2018-11-28T13:20:39.960Z,14.30
2018-11-28T13:23:09.024Z,14.40
2018-11-28T13:25:37.675Z,18.13
2018-11-28T13:28:06.096Z,14.90
2018-11-28T13:30:34.429Z,15.53
2018-11-28T13:33:02.863Z,15.87
2018-11-28T13:35:31.204Z,17.03
2018-11-28T13:38:05.332Z,19.43
2018-11-28T13:40:33.623Z,16.27
2018-11-28T13:43:01.946Z,19.10
2018-11-28T13:45:32.526Z,16.67
2018-11-28T13:48:00.860Z,17.87
2018-11-28T13:50:29.272Z,16.67
2018-11-28T13:52:58.640Z,15.57
2018-11-28T13:58:27.072Z,16.93
2018-11-28T14:00:55.334Z,17.23
2018-11-28T14:03:23.687Z,18.43
2018-11-28T14:05:52.019Z,17.97
2018-11-28T14:08:20.321Z,18.50
2018-11-28T14:10:48.622Z,19.60
2018-11-28T14:13:17.010Z,18.37
2018-11-28T14:15:45.279Z,18.43
2018-11-28T14:18:14.971Z,22.50
2018-11-28T14:20:43.368Z,20.60
2018-11-28T14:23:11.653Z,19.27
2018-11-28T14:25:39.929Z,20.33
2018-11-28T14:28:08.512Z,18.43
2018-11-28T14:30:37.305Z,16.33
2018-11-28T14:33:05.681Z,16.90
2018-11-28T14:35:34.067Z,16.53
2018-11-28T14:38:02.364Z,16.50
2018-11-28T14:40:30.675Z,17.03
2018-11-28T14:42:59.642Z,19.43
2018-11-28T14:45:29.558Z,20.47
2018-11-28T14:47:57.852Z,19.13
2018-11-28T14:50:27.917Z,17.20
2018-11-28T14:52:57.342Z,17.97
2018-11-28T14:55:32.567Z,19.80
2018-11-28T14:58:00.900Z,18.70
2018-11-28T15:00:30.049Z,17.23
2018-11-28T15:03:04.047Z,20.37
2018-11-28T15:06:43.116Z,18.30
2018-11-28T15:09:16.731Z,21.40
2018-11-28T15:11:45.163Z,16.47
2018-11-28T15:14:13.460Z,18.70
2018-11-28T15:16:41.846Z,19.57
2018-11-28T15:19:10.096Z,20.90
2018-11-28T15:21:38.459Z,22.57
2018-11-28T15:24:07.004Z,19.00
2018-11-28T15:26:35.334Z,19.23
2018-11-28T15:29:03.620Z,19.70
2018-11-28T15:31:31.961Z,19.33
2018-11-28T15:34:00.265Z,21.70
2018-11-28T15:36:28.561Z,19.60
2018-11-28T15:38:56.834Z,19.37
2018-11-28T15:41:25.135Z,21.37
2018-11-28T15:43:53.420Z,18.03
2018-11-28T15:46:21.735Z,20.40
2018-11-28T15:48:50.033Z,15.30
2018-11-28T15:51:19.828Z,18.73
2018-11-28T15:53:48.117Z,18.50
2018-11-28T15:56:16.420Z,20.50
2018-11-28T15:58:44.695Z,19.60
2018-11-28T16:01:13.075Z,17.60
2018-11-28T16:03:41.482Z,19.95
2018-11-28T16:06:09.836Z,18.73
2018-11-28T16:08:38.267Z,18.67
2018-11-28T16:11:11.773Z,20.52
2018-11-28T16:13:40.120Z,17.73
2018-11-28T16:16:09.572Z,18.83
2018-11-28T16:18:37.957Z,17.40
2018-11-28T16:21:06.422Z,20.75
2018-11-28T16:23:34.838Z,16.80
2018-11-28T16:26:04.219Z,21.60
2018-11-28T16:28:32.784Z,18.10
2018-11-28T16:31:01.171Z,15.33
2018-11-28T16:33:29.588Z,19.97
2018-11-28T16:35:58.084Z,16.53
2018-11-28T16:38:26.495Z,15.73
2018-11-28T16:40:54.816Z,15.73
2018-11-28T16:43:23.156Z,16.90
2018-11-28T16:45:51.460Z,18.33
2018-11-28T16:48:19.857Z,19.63
2018-11-28T16:50:48.218Z,19.53
2018-11-28T16:53:16.565Z,17.00
2018-11-28T16:55:45.014Z,19.80
2018-11-28T16:58:13.427Z,19.63
2018-11-28T17:00:43.393Z,20.43
2018-11-28T17:03:11.735Z,19.30
2018-11-28T17:05:41.372Z,15.63
2018-11-28T17:08:10.070Z,16.40
2018-11-28T17:10:38.438Z,18.73
2018-11-28T17:13:07.139Z,19.80
2018-11-28T17:15:35.548Z,19.87
2018-11-28T17:18:03.873Z,19.07
2018-11-28T17:20:32.194Z,18.70
2018-11-28T17:23:00.607Z,17.97
2018-11-28T17:25:30.158Z,17.77
2018-11-28T17:27:58.579Z,18.97
2018-11-28T17:30:27.930Z,21.13
2018-11-28T17:32:56.215Z,24.45
2018-11-28T17:35:24.808Z,21.70
2018-11-28T17:37:53.348Z,22.13
2018-11-28T17:40:25.725Z,24.43
2018-11-28T17:43:00.956Z,23.07
2018-11-28T17:45:30.215Z,21.47
2018-11-28T17:47:58.523Z,26.67
2018-11-28T17:50:27.249Z,25.73
2018-11-28T17:53:00.006Z,26.10
2018-11-28T17:55:29.659Z,25.80
2018-11-28T17:57:58.036Z,29.67
2018-11-28T18:00:26.425Z,27.03
2018-11-28T18:02:54.780Z,30.77
2018-11-28T18:05:23.056Z,29.97
2018-11-28T18:10:29.162Z,25.83
2018-11-28T18:13:07.521Z,29.37
2018-11-28T18:15:36.614Z,49.75
2018-11-28T18:18:08.084Z,28.40
2018-11-28T18:20:36.590Z,26.47
2018-11-28T18:23:06.280Z,24.27
2018-11-28T18:25:34.360Z,25.33
2018-11-28T18:28:02.672Z,27.20
2018-11-28T18:30:30.954Z,26.57
2018-11-28T18:32:59.409Z,29.37
2018-11-28T18:35:27.795Z,27.30
2018-11-28T18:37:56.113Z,25.13
2018-11-28T18:40:26.604Z,29.03
2018-11-28T18:42:54.900Z,27.93
2018-11-28T18:45:24.786Z,23.17
2018-11-28T18:47:53.124Z,28.23
2018-11-28T18:50:21.461Z,23.80
2018-11-28T18:52:50.107Z,23.73
2018-11-28T18:55:19.433Z,24.53
2018-11-28T18:57:49.144Z,28.63
2018-11-28T19:00:19.082Z,24.87
2018-11-28T19:02:47.389Z,26.87
2018-11-28T19:05:15.842Z,30.57
2018-11-28T19:07:44.357Z,30.27
2018-11-28T19:10:28.450Z,29.40
2018-11-28T19:12:56.845Z,29.10
2018-11-28T19:15:29.164Z,31.90
2018-11-28T19:17:58.518Z,27.80
2018-11-28T19:20:27.099Z,25.23
2018-11-28T19:22:56.408Z,25.97
2018-11-28T19:25:25.713Z,28.00
2018-11-28T19:27:54.107Z,27.40
2018-11-28T19:30:30.819Z,25.80
2018-11-28T19:32:55.988Z,26.77
2018-11-28T19:35:25.457Z,32.13
2018-11-28T19:37:53.844Z,29.93
2018-11-28T19:40:29.534Z,28.70
2018-11-28T19:43:01.216Z,28.60
2018-11-28T19:45:29.629Z,25.87
2018-11-28T19:48:00.037Z,28.03
2018-11-28T19:50:31.311Z,25.10
2018-11-28T19:53:00.780Z,22.03
2018-11-28T19:55:29.085Z,24.70
2018-11-28T19:57:58.488Z,21.53
2018-11-28T20:00:27.936Z,20.83
2018-11-28T20:02:57.315Z,21.70
2018-11-28T20:05:27.875Z,22.67
2018-11-28T20:07:57.560Z,18.67
2018-11-28T20:10:28.007Z,20.17
2018-11-28T20:12:56.500Z,20.63
2018-11-28T20:15:28.240Z,18.47
2018-11-28T20:17:57.048Z,19.17
2018-11-28T20:20:25.444Z,18.17
2018-11-28T20:22:55.928Z,18.23
2018-11-28T20:25:24.888Z,15.93
2018-11-28T20:27:58.450Z,15.80
2018-11-28T20:30:30.101Z,26.40
2018-11-28T20:32:58.466Z,17.83
2018-11-28T20:35:27.007Z,18.50
2018-11-28T20:37:59.953Z,16.10
2018-11-28T20:40:32.618Z,14.40
2018-11-28T20:43:02.996Z,17.13
2018-11-28T20:45:34.857Z,17.27
2018-11-28T20:48:03.415Z,16.33
2018-11-28T20:50:33.426Z,14.83
2018-11-28T20:53:07.454Z,15.83
2018-11-28T20:55:36.024Z,17.00
2018-11-28T20:58:04.493Z,20.50
2018-11-28T21:00:33.010Z,15.70
2018-11-28T21:03:05.056Z,14.80
2018-11-28T21:05:33.389Z,15.67
2018-11-28T21:08:02.813Z,18.67
2018-11-28T21:10:36.472Z,15.43
2018-11-28T21:13:05.879Z,12.83
2018-11-28T21:15:34.244Z,14.97
2018-11-28T21:18:02.686Z,14.00
2018-11-28T21:20:31.225Z,13.27
2018-11-28T21:23:02.142Z,12.37
2018-11-28T21:25:30.495Z,11.23
2018-11-28T21:27:58.788Z,11.17
2018-11-28T21:30:27.365Z,11.37
2018-11-28T21:32:55.822Z,11.07
2018-11-28T21:35:26.855Z,13.50
2018-11-28T21:37:56.315Z,14.67
2018-11-28T21:40:24.648Z,11.23
2018-11-28T21:42:53.160Z,12.93
2018-11-28T21:45:22.460Z,13.47
2018-11-28T21:47:50.919Z,10.53
2018-11-28T21:50:19.645Z,13.50
2018-11-28T21:52:50.043Z,13.90
2018-11-28T21:55:22.289Z,12.67
2018-11-28T21:57:50.649Z,12.57
2018-11-28T22:00:21.890Z,15.97
2018-11-28T22:02:50.243Z,12.67
2018-11-28T22:05:18.650Z,12.60
2018-11-28T22:07:46.988Z,15.83
2018-11-28T22:10:18.306Z,14.40
2018-11-28T22:12:46.714Z,15.90
2018-11-28T22:15:15.749Z,14.60
2018-11-28T22:17:49.105Z,14.53
2018-11-28T22:20:17.397Z,14.03
2018-11-28T22:22:46.747Z,14.00
2018-11-28T22:25:16.221Z,12.97
2018-11-28T22:27:45.156Z,14.60
2018-11-28T22:30:16.570Z,15.67
2018-11-28T22:32:44.864Z,13.90
2018-11-28T22:35:13.291Z,14.10
2018-11-28T22:37:42.243Z,14.17
2018-11-28T22:40:16.622Z,15.80
2018-11-28T22:42:44.930Z,15.90
2018-11-28T22:45:14.480Z,14.87
2018-11-28T22:47:42.920Z,14.93
2018-11-28T22:50:12.167Z,14.87
2018-11-28T22:52:40.515Z,14.37
2018-11-28T22:55:10.782Z,13.77
2018-11-28T22:57:39.080Z,13.27
2018-11-28T23:00:25.134Z,20.37
2018-11-28T23:02:57.667Z,14.37
2018-11-28T23:05:27.387Z,16.30
2018-11-28T23:07:57.428Z,15.50
2018-11-28T23:10:25.774Z,11.83
2018-11-28T23:12:54.172Z,13.07
2018-11-28T23:15:22.497Z,13.10
2018-11-28T23:17:54.975Z,14.20
2018-11-28T23:20:19.031Z,14.30
2018-11-28T23:22:47.344Z,13.00
2018-11-28T23:25:15.642Z,14.10
2018-11-28T23:27:44.000Z,13.70
2018-11-28T23:30:15.379Z,16.57
2018-11-28T23:32:43.713Z,14.90
2018-11-28T23:35:15.040Z,13.67
2018-11-28T23:37:44.536Z,14.57
2018-11-28T23:40:14.007Z,13.00
2018-11-28T23:42:42.554Z,12.03
2018-11-28T23:45:11.715Z,11.90
2018-11-28T23:47:40.004Z,13.37
2018-11-28T23:50:10.699Z,13.37
2018-11-28T23:52:38.947Z,14.63
2018-11-28T23:55:11.453Z,12.53
2018-11-28T23:57:39.699Z,11.60
